Port McNeill, Canada
Current Conditions -  °F | °C
As of 8:00 AM on Monday 22 Dec 2014 (Local Time) from CYZT Reporting Station
Rain Showers Rain Showers  
Wind Chill: 40°   Ceiling: 3000
Heat Index: 43°   Visibility: 15mi
Dew Point: 41°   Wind: 5mph
Humidity: 93%   Direction: 220°SW
Pressure: 30.3"   Gusts: NA
Location:  50.58°N, 127.08°W
Report Text: CYZT 221600Z 22004KT 200V270 15SM -SHRA BKN030TCU BKN050 06/05 A3030 RMK TCU5SC2 SLP260
Loading
Personal Weather Stations






























Interactive Weather Map New forecast layout! Learn more

10-Day Weather Forecast

Advertisements
Track Severe Weather on mobile